sensor_id;sensor_type;location;lat;lon;timestamp;P1;durP1;ratioP1;P2;durP2;ratioP2
75340;SDS011;64931;47.562;18.920;2023-09-19T00:00:34;15.10;;;7.20;;
75340;SDS011;64931;47.562;18.920;2023-09-19T00:03:00;15.00;;;6.80;;
75340;SDS011;64931;47.562;18.920;2023-09-19T00:05:27;11.50;;;7.20;;
75340;SDS011;64931;47.562;18.920;2023-09-19T00:07:54;12.50;;;7.00;;
75340;SDS011;64931;47.562;18.920;2023-09-19T00:10:23;13.80;;;7.40;;
75340;SDS011;64931;47.562;18.920;2023-09-19T00:12:50;15.00;;;6.80;;
75340;SDS011;64931;47.562;18.920;2023-09-19T00:15:18;10.70;;;7.40;;
75340;SDS011;64931;47.562;18.920;2023-09-19T00:17:44;13.10;;;7.30;;
75340;SDS011;64931;47.562;18.920;2023-09-19T00:20:09;13.20;;;7.50;;
75340;SDS011;64931;47.562;18.920;2023-09-19T00:22:41;14.90;;;7.20;;
75340;SDS011;64931;47.562;18.920;2023-09-19T00:25:08;14.20;;;6.80;;
75340;SDS011;64931;47.562;18.920;2023-09-19T00:27:35;12.90;;;7.20;;
75340;SDS011;64931;47.562;18.920;2023-09-19T00:30:07;13.80;;;6.90;;
75340;SDS011;64931;47.562;18.920;2023-09-19T00:32:40;13.80;;;8.00;;
75340;SDS011;64931;47.562;18.920;2023-09-19T00:35:06;15.30;;;7.40;;
75340;SDS011;64931;47.562;18.920;2023-09-19T00:37:33;14.20;;;7.20;;
75340;SDS011;64931;47.562;18.920;2023-09-19T00:39:59;16.50;;;7.40;;
75340;SDS011;64931;47.562;18.920;2023-09-19T00:42:24;14.00;;;7.60;;
75340;SDS011;64931;47.562;18.920;2023-09-19T00:44:51;14.10;;;7.70;;
75340;SDS011;64931;47.562;18.920;2023-09-19T00:47:17;10.30;;;7.80;;
75340;SDS011;64931;47.562;18.920;2023-09-19T00:49:44;14.90;;;7.70;;
75340;SDS011;64931;47.562;18.920;2023-09-19T00:52:14;12.60;;;8.10;;
75340;SDS011;64931;47.562;18.920;2023-09-19T00:54:39;15.40;;;8.90;;
75340;SDS011;64931;47.562;18.920;2023-09-19T00:57:04;10.80;;;8.00;;
75340;SDS011;64931;47.562;18.920;2023-09-19T00:59:30;14.20;;;8.40;;
75340;SDS011;64931;47.562;18.920;2023-09-19T01:01:56;16.30;;;8.70;;
75340;SDS011;64931;47.562;18.920;2023-09-19T01:04:25;15.30;;;8.00;;
75340;SDS011;64931;47.562;18.920;2023-09-19T01:06:51;14.10;;;8.80;;
75340;SDS011;64931;47.562;18.920;2023-09-19T01:09:19;14.30;;;9.10;;
75340;SDS011;64931;47.562;18.920;2023-09-19T01:11:46;11.30;;;8.40;;
75340;SDS011;64931;47.562;18.920;2023-09-19T01:17:03;14.10;;;8.40;;
75340;SDS011;64931;47.562;18.920;2023-09-19T01:30:44;16.80;;;8.70;;
75340;SDS011;64931;47.562;18.920;2023-09-19T01:33:11;12.90;;;8.40;;
75340;SDS011;64931;47.562;18.920;2023-09-19T01:35:39;14.90;;;9.00;;
75340;SDS011;64931;47.562;18.920;2023-09-19T01:38:06;13.10;;;8.80;;
75340;SDS011;64931;47.562;18.920;2023-09-19T01:40:41;16.60;;;9.20;;
75340;SDS011;64931;47.562;18.920;2023-09-19T01:45:37;14.70;;;8.60;;
75340;SDS011;64931;47.562;18.920;2023-09-19T01:51:28;16.80;;;9.00;;
75340;SDS011;64931;47.562;18.920;2023-09-19T01:54:03;12.00;;;8.00;;
75340;SDS011;64931;47.562;18.920;2023-09-19T01:56:36;11.00;;;8.50;;
75340;SDS011;64931;47.562;18.920;2023-09-19T01:59:16;16.30;;;9.40;;
75340;SDS011;64931;47.562;18.920;2023-09-19T02:01:46;15.10;;;8.00;;
75340;SDS011;64931;47.562;18.920;2023-09-19T02:04:13;16.50;;;9.10;;
75340;SDS011;64931;47.562;18.920;2023-09-19T02:06:41;14.50;;;8.70;;
75340;SDS011;64931;47.562;18.920;2023-09-19T02:09:07;14.50;;;9.60;;
75340;SDS011;64931;47.562;18.920;2023-09-19T02:11:34;19.60;;;9.10;;
75340;SDS011;64931;47.562;18.920;2023-09-19T02:14:00;16.40;;;9.20;;
75340;SDS011;64931;47.562;18.920;2023-09-19T02:16:26;18.80;;;9.40;;
75340;SDS011;64931;47.562;18.920;2023-09-19T02:18:51;15.80;;;9.30;;
75340;SDS011;64931;47.562;18.920;2023-09-19T02:21:17;15.30;;;8.80;;
75340;SDS011;64931;47.562;18.920;2023-09-19T02:23:46;12.60;;;9.10;;
75340;SDS011;64931;47.562;18.920;2023-09-19T02:26:12;16.80;;;9.10;;
75340;SDS011;64931;47.562;18.920;2023-09-19T02:28:39;19.00;;;9.50;;
75340;SDS011;64931;47.562;18.920;2023-09-19T02:31:04;17.30;;;9.60;;
75340;SDS011;64931;47.562;18.920;2023-09-19T02:33:30;17.10;;;8.60;;
75340;SDS011;64931;47.562;18.920;2023-09-19T02:35:58;15.10;;;8.90;;
75340;SDS011;64931;47.562;18.920;2023-09-19T02:38:26;16.30;;;9.30;;
75340;SDS011;64931;47.562;18.920;2023-09-19T02:40:52;13.50;;;9.10;;
75340;SDS011;64931;47.562;18.920;2023-09-19T02:45:45;14.70;;;8.60;;
75340;SDS011;64931;47.562;18.920;2023-09-19T02:48:20;15.20;;;9.20;;
75340;SDS011;64931;47.562;18.920;2023-09-19T02:50:46;15.40;;;8.40;;
75340;SDS011;64931;47.562;18.920;2023-09-19T02:53:14;13.90;;;8.80;;
75340;SDS011;64931;47.562;18.920;2023-09-19T02:55:40;14.30;;;7.90;;
75340;SDS011;64931;47.562;18.920;2023-09-19T02:58:05;14.00;;;8.90;;
75340;SDS011;64931;47.562;18.920;2023-09-19T03:00:33;16.90;;;8.50;;
75340;SDS011;64931;47.562;18.920;2023-09-19T03:03:00;15.10;;;8.70;;
75340;SDS011;64931;47.562;18.920;2023-09-19T03:05:27;15.70;;;9.70;;
75340;SDS011;64931;47.562;18.920;2023-09-19T03:07:56;18.40;;;9.40;;
75340;SDS011;64931;47.562;18.920;2023-09-19T03:10:21;15.00;;;8.90;;
75340;SDS011;64931;47.562;18.920;2023-09-19T03:12:47;16.60;;;9.40;;
75340;SDS011;64931;47.562;18.920;2023-09-19T03:15:13;15.80;;;9.30;;
75340;SDS011;64931;47.562;18.920;2023-09-19T03:17:44;15.10;;;9.10;;
75340;SDS011;64931;47.562;18.920;2023-09-19T03:20:10;14.50;;;9.10;;
75340;SDS011;64931;47.562;18.920;2023-09-19T03:25:03;16.30;;;9.70;;
75340;SDS011;64931;47.562;18.920;2023-09-19T03:27:35;18.90;;;9.40;;
75340;SDS011;64931;47.562;18.920;2023-09-19T03:30:01;17.10;;;10.20;;
75340;SDS011;64931;47.562;18.920;2023-09-19T03:32:30;15.90;;;9.50;;
75340;SDS011;64931;47.562;18.920;2023-09-19T03:34:56;15.30;;;9.40;;
75340;SDS011;64931;47.562;18.920;2023-09-19T03:37:21;18.20;;;9.30;;
75340;SDS011;64931;47.562;18.920;2023-09-19T03:39:46;16.30;;;9.00;;
75340;SDS011;64931;47.562;18.920;2023-09-19T03:42:12;15.90;;;8.60;;
75340;SDS011;64931;47.562;18.920;2023-09-19T03:44:37;14.90;;;7.80;;
75340;SDS011;64931;47.562;18.920;2023-09-19T03:47:03;13.80;;;7.30;;
75340;SDS011;64931;47.562;18.920;2023-09-19T03:49:29;13.70;;;7.30;;
75340;SDS011;64931;47.562;18.920;2023-09-19T03:51:55;15.30;;;6.80;;
75340;SDS011;64931;47.562;18.920;2023-09-19T03:54:21;12.60;;;6.70;;
75340;SDS011;64931;47.562;18.920;2023-09-19T03:56:46;10.60;;;5.60;;
75340;SDS011;64931;47.562;18.920;2023-09-19T03:59:12;11.00;;;5.80;;
75340;SDS011;64931;47.562;18.920;2023-09-19T04:01:37;11.40;;;5.90;;
75340;SDS011;64931;47.562;18.920;2023-09-19T04:04:04;12.90;;;5.40;;
75340;SDS011;64931;47.562;18.920;2023-09-19T04:06:33;9.60;;;5.30;;
75340;SDS011;64931;47.562;18.920;2023-09-19T04:09:03;7.50;;;3.80;;
75340;SDS011;64931;47.562;18.920;2023-09-19T04:11:29;8.70;;;3.90;;
75340;SDS011;64931;47.562;18.920;2023-09-19T04:13:55;8.70;;;3.50;;
75340;SDS011;64931;47.562;18.920;2023-09-19T04:16:21;7.20;;;3.30;;
75340;SDS011;64931;47.562;18.920;2023-09-19T04:18:46;7.80;;;2.90;;
75340;SDS011;64931;47.562;18.920;2023-09-19T04:21:12;9.80;;;2.90;;
75340;SDS011;64931;47.562;18.920;2023-09-19T04:23:37;7.10;;;2.60;;
75340;SDS011;64931;47.562;18.920;2023-09-19T04:26:02;6.60;;;2.20;;
75340;SDS011;64931;47.562;18.920;2023-09-19T04:28:31;5.30;;;1.90;;
75340;SDS011;64931;47.562;18.920;2023-09-19T04:33:25;5.40;;;2.50;;
75340;SDS011;64931;47.562;18.920;2023-09-19T04:35:52;4.60;;;1.70;;
75340;SDS011;64931;47.562;18.920;2023-09-19T04:38:21;5.60;;;2.00;;
75340;SDS011;64931;47.562;18.920;2023-09-19T04:40:47;5.00;;;1.80;;
75340;SDS011;64931;47.562;18.920;2023-09-19T04:43:12;3.20;;;1.30;;
75340;SDS011;64931;47.562;18.920;2023-09-19T04:45:38;3.40;;;1.50;;
75340;SDS011;64931;47.562;18.920;2023-09-19T04:48:04;3.30;;;1.50;;
75340;SDS011;64931;47.562;18.920;2023-09-19T04:50:31;4.20;;;1.30;;
75340;SDS011;64931;47.562;18.920;2023-09-19T04:52:57;4.30;;;1.80;;
75340;SDS011;64931;47.562;18.920;2023-09-19T04:55:24;2.70;;;1.20;;
75340;SDS011;64931;47.562;18.920;2023-09-19T04:57:50;4.30;;;1.40;;
75340;SDS011;64931;47.562;18.920;2023-09-19T05:00:18;3.40;;;1.40;;
75340;SDS011;64931;47.562;18.920;2023-09-19T05:02:51;5.30;;;1.20;;
75340;SDS011;64931;47.562;18.920;2023-09-19T05:05:17;2.20;;;1.10;;
75340;SDS011;64931;47.562;18.920;2023-09-19T05:07:44;3.00;;;1.00;;
75340;SDS011;64931;47.562;18.920;2023-09-19T05:10:10;3.10;;;1.30;;
75340;SDS011;64931;47.562;18.920;2023-09-19T05:12:37;2.40;;;0.90;;
75340;SDS011;64931;47.562;18.920;2023-09-19T05:15:03;2.40;;;0.90;;
75340;SDS011;64931;47.562;18.920;2023-09-19T05:17:29;2.30;;;1.00;;
75340;SDS011;64931;47.562;18.920;2023-09-19T05:19:56;3.90;;;1.00;;
75340;SDS011;64931;47.562;18.920;2023-09-19T05:22:23;1.70;;;0.90;;
75340;SDS011;64931;47.562;18.920;2023-09-19T05:24:50;2.70;;;1.10;;
75340;SDS011;64931;47.562;18.920;2023-09-19T05:27:16;3.60;;;0.90;;
75340;SDS011;64931;47.562;18.920;2023-09-19T05:29:44;1.90;;;0.90;;
75340;SDS011;64931;47.562;18.920;2023-09-19T05:32:10;2.60;;;1.00;;
75340;SDS011;64931;47.562;18.920;2023-09-19T05:34:36;2.20;;;1.00;;
75340;SDS011;64931;47.562;18.920;2023-09-19T05:37:03;1.30;;;0.60;;
75340;SDS011;64931;47.562;18.920;2023-09-19T05:39:30;2.30;;;0.90;;
75340;SDS011;64931;47.562;18.920;2023-09-19T05:41:55;3.00;;;0.80;;
75340;SDS011;64931;47.562;18.920;2023-09-19T05:44:22;2.60;;;0.90;;
75340;SDS011;64931;47.562;18.920;2023-09-19T05:46:47;2.00;;;0.80;;
75340;SDS011;64931;47.562;18.920;2023-09-19T05:49:13;1.90;;;1.00;;
75340;SDS011;64931;47.562;18.920;2023-09-19T05:51:39;2.60;;;0.90;;
75340;SDS011;64931;47.562;18.920;2023-09-19T05:54:05;1.60;;;0.80;;
75340;SDS011;64931;47.562;18.920;2023-09-19T05:56:30;2.50;;;0.80;;
75340;SDS011;64931;47.562;18.920;2023-09-19T05:58:56;2.30;;;0.90;;
75340;SDS011;64931;47.562;18.920;2023-09-19T06:01:21;2.60;;;1.00;;
75340;SDS011;64931;47.562;18.920;2023-09-19T06:03:47;2.60;;;0.80;;
75340;SDS011;64931;47.562;18.920;2023-09-19T06:06:13;4.30;;;1.10;;
75340;SDS011;64931;47.562;18.920;2023-09-19T06:08:38;3.40;;;1.00;;
75340;SDS011;64931;47.562;18.920;2023-09-19T06:11:03;2.60;;;1.00;;
75340;SDS011;64931;47.562;18.920;2023-09-19T06:13:32;2.00;;;0.90;;
75340;SDS011;64931;47.562;18.920;2023-09-19T06:15:58;3.80;;;1.10;;
75340;SDS011;64931;47.562;18.920;2023-09-19T06:18:28;4.30;;;1.10;;
75340;SDS011;64931;47.562;18.920;2023-09-19T06:20:54;2.30;;;1.00;;
75340;SDS011;64931;47.562;18.920;2023-09-19T06:23:20;1.50;;;0.80;;
75340;SDS011;64931;47.562;18.920;2023-09-19T06:25:46;5.20;;;1.00;;
75340;SDS011;64931;47.562;18.920;2023-09-19T06:28:12;4.00;;;1.20;;
75340;SDS011;64931;47.562;18.920;2023-09-19T06:30:38;2.90;;;1.00;;
75340;SDS011;64931;47.562;18.920;2023-09-19T06:33:07;2.50;;;1.40;;
75340;SDS011;64931;47.562;18.920;2023-09-19T06:35:33;1.80;;;0.90;;
75340;SDS011;64931;47.562;18.920;2023-09-19T06:37:59;2.90;;;1.00;;
75340;SDS011;64931;47.562;18.920;2023-09-19T06:40:28;2.00;;;0.80;;
75340;SDS011;64931;47.562;18.920;2023-09-19T06:42:53;1.60;;;1.00;;
75340;SDS011;64931;47.562;18.920;2023-09-19T06:45:21;1.50;;;0.90;;
75340;SDS011;64931;47.562;18.920;2023-09-19T06:47:47;1.20;;;0.80;;
75340;SDS011;64931;47.562;18.920;2023-09-19T06:50:15;3.50;;;0.90;;
75340;SDS011;64931;47.562;18.920;2023-09-19T06:52:44;1.80;;;0.70;;
75340;SDS011;64931;47.562;18.920;2023-09-19T06:55:10;3.40;;;0.70;;
75340;SDS011;64931;47.562;18.920;2023-09-19T06:57:38;2.60;;;0.90;;
75340;SDS011;64931;47.562;18.920;2023-09-19T07:00:06;2.00;;;0.60;;
75340;SDS011;64931;47.562;18.920;2023-09-19T07:02:41;2.60;;;0.90;;
75340;SDS011;64931;47.562;18.920;2023-09-19T07:05:07;1.10;;;0.70;;
75340;SDS011;64931;47.562;18.920;2023-09-19T07:07:33;2.50;;;0.80;;
75340;SDS011;64931;47.562;18.920;2023-09-19T07:10:00;2.10;;;0.70;;
75340;SDS011;64931;47.562;18.920;2023-09-19T07:12:26;2.10;;;0.70;;
75340;SDS011;64931;47.562;18.920;2023-09-19T07:14:52;2.10;;;0.70;;
75340;SDS011;64931;47.562;18.920;2023-09-19T07:17:17;2.90;;;1.10;;
75340;SDS011;64931;47.562;18.920;2023-09-19T07:19:44;1.70;;;0.80;;
75340;SDS011;64931;47.562;18.920;2023-09-19T07:22:10;3.70;;;1.00;;
75340;SDS011;64931;47.562;18.920;2023-09-19T07:24:35;2.20;;;1.00;;
75340;SDS011;64931;47.562;18.920;2023-09-19T07:27:02;4.10;;;1.10;;
75340;SDS011;64931;47.562;18.920;2023-09-19T07:29:28;2.50;;;1.00;;
75340;SDS011;64931;47.562;18.920;2023-09-19T07:31:53;2.20;;;1.10;;
75340;SDS011;64931;47.562;18.920;2023-09-19T07:34:19;3.20;;;1.10;;
75340;SDS011;64931;47.562;18.920;2023-09-19T07:36:47;2.40;;;1.00;;
75340;SDS011;64931;47.562;18.920;2023-09-19T07:39:12;3.30;;;1.30;;
75340;SDS011;64931;47.562;18.920;2023-09-19T07:41:38;2.90;;;1.40;;
75340;SDS011;64931;47.562;18.920;2023-09-19T07:44:03;3.30;;;1.20;;
75340;SDS011;64931;47.562;18.920;2023-09-19T07:46:29;3.30;;;1.00;;
75340;SDS011;64931;47.562;18.920;2023-09-19T07:48:56;2.30;;;1.30;;
75340;SDS011;64931;47.562;18.920;2023-09-19T07:51:22;3.40;;;1.30;;
75340;SDS011;64931;47.562;18.920;2023-09-19T07:53:48;3.80;;;1.20;;
75340;SDS011;64931;47.562;18.920;2023-09-19T07:56:13;3.90;;;1.20;;
75340;SDS011;64931;47.562;18.920;2023-09-19T07:58:39;4.60;;;1.40;;
75340;SDS011;64931;47.562;18.920;2023-09-19T08:01:09;2.70;;;1.30;;
75340;SDS011;64931;47.562;18.920;2023-09-19T08:03:35;2.90;;;1.30;;
75340;SDS011;64931;47.562;18.920;2023-09-19T08:06:10;4.00;;;1.30;;
75340;SDS011;64931;47.562;18.920;2023-09-19T08:08:36;5.30;;;1.40;;
75340;SDS011;64931;47.562;18.920;2023-09-19T08:11:02;3.10;;;1.60;;
75340;SDS011;64931;47.562;18.920;2023-09-19T08:13:36;5.30;;;1.20;;
75340;SDS011;64931;47.562;18.920;2023-09-19T08:16:03;3.60;;;1.30;;
75340;SDS011;64931;47.562;18.920;2023-09-19T08:18:30;3.10;;;1.30;;
75340;SDS011;64931;47.562;18.920;2023-09-19T08:20:55;3.60;;;1.50;;
75340;SDS011;64931;47.562;18.920;2023-09-19T08:25:48;2.70;;;1.10;;
75340;SDS011;64931;47.562;18.920;2023-09-19T08:28:14;3.20;;;1.10;;
75340;SDS011;64931;47.562;18.920;2023-09-19T08:30:45;3.70;;;1.30;;
75340;SDS011;64931;47.562;18.920;2023-09-19T08:33:11;4.20;;;1.20;;
75340;SDS011;64931;47.562;18.920;2023-09-19T08:35:36;4.90;;;1.50;;
75340;SDS011;64931;47.562;18.920;2023-09-19T08:38:05;3.50;;;1.20;;
75340;SDS011;64931;47.562;18.920;2023-09-19T08:40:31;3.50;;;1.20;;
75340;SDS011;64931;47.562;18.920;2023-09-19T08:42:58;4.00;;;1.30;;
75340;SDS011;64931;47.562;18.920;2023-09-19T08:45:25;2.70;;;1.30;;
75340;SDS011;64931;47.562;18.920;2023-09-19T08:50:29;3.00;;;1.30;;
75340;SDS011;64931;47.562;18.920;2023-09-19T08:52:56;3.80;;;1.20;;
75340;SDS011;64931;47.562;18.920;2023-09-19T08:57:54;2.80;;;1.00;;
75340;SDS011;64931;47.562;18.920;2023-09-19T09:00:28;3.30;;;1.00;;
75340;SDS011;64931;47.562;18.920;2023-09-19T09:02:55;3.10;;;1.30;;
75340;SDS011;64931;47.562;18.920;2023-09-19T09:05:22;2.00;;;1.00;;
75340;SDS011;64931;47.562;18.920;2023-09-19T09:07:49;3.00;;;1.30;;
75340;SDS011;64931;47.562;18.920;2023-09-19T09:10:19;3.60;;;0.90;;
75340;SDS011;64931;47.562;18.920;2023-09-19T09:12:48;4.00;;;1.20;;
75340;SDS011;64931;47.562;18.920;2023-09-19T09:15:20;2.40;;;1.00;;
75340;SDS011;64931;47.562;18.920;2023-09-19T09:17:48;3.10;;;0.90;;
75340;SDS011;64931;47.562;18.920;2023-09-19T09:20:16;2.80;;;1.10;;
75340;SDS011;64931;47.562;18.920;2023-09-19T09:22:55;3.00;;;1.00;;
75340;SDS011;64931;47.562;18.920;2023-09-19T09:25:47;3.30;;;1.10;;
75340;SDS011;64931;47.562;18.920;2023-09-19T09:28:23;3.10;;;1.20;;
75340;SDS011;64931;47.562;18.920;2023-09-19T09:30:49;5.00;;;1.20;;
75340;SDS011;64931;47.562;18.920;2023-09-19T09:33:15;5.40;;;1.40;;
75340;SDS011;64931;47.562;18.920;2023-09-19T09:36:02;4.20;;;1.10;;
75340;SDS011;64931;47.562;18.920;2023-09-19T09:41:10;2.60;;;1.20;;
75340;SDS011;64931;47.562;18.920;2023-09-19T09:43:40;4.10;;;1.20;;
75340;SDS011;64931;47.562;18.920;2023-09-19T09:51:40;4.30;;;1.50;;
75340;SDS011;64931;47.562;18.920;2023-09-19T09:54:17;3.80;;;1.70;;
75340;SDS011;64931;47.562;18.920;2023-09-19T09:56:52;3.60;;;1.80;;
75340;SDS011;64931;47.562;18.920;2023-09-19T09:59:18;3.90;;;2.10;;
75340;SDS011;64931;47.562;18.920;2023-09-19T10:01:47;5.90;;;2.30;;
75340;SDS011;64931;47.562;18.920;2023-09-19T10:04:28;6.60;;;3.00;;
75340;SDS011;64931;47.562;18.920;2023-09-19T10:07:01;4.20;;;2.10;;
75340;SDS011;64931;47.562;18.920;2023-09-19T10:09:44;4.20;;;1.90;;
75340;SDS011;64931;47.562;18.920;2023-09-19T10:12:10;4.50;;;1.90;;
75340;SDS011;64931;47.562;18.920;2023-09-19T10:14:38;4.50;;;2.00;;
75340;SDS011;64931;47.562;18.920;2023-09-19T10:17:06;4.80;;;2.10;;
75340;SDS011;64931;47.562;18.920;2023-09-19T10:19:46;3.90;;;2.10;;
75340;SDS011;64931;47.562;18.920;2023-09-19T10:22:15;3.40;;;1.90;;
75340;SDS011;64931;47.562;18.920;2023-09-19T10:24:46;4.00;;;2.00;;
75340;SDS011;64931;47.562;18.920;2023-09-19T10:27:12;4.40;;;1.80;;
75340;SDS011;64931;47.562;18.920;2023-09-19T10:29:41;5.20;;;2.20;;
75340;SDS011;64931;47.562;18.920;2023-09-19T10:32:09;3.40;;;2.00;;
75340;SDS011;64931;47.562;18.920;2023-09-19T10:34:36;4.40;;;2.20;;
75340;SDS011;64931;47.562;18.920;2023-09-19T10:37:02;5.30;;;2.10;;
75340;SDS011;64931;47.562;18.920;2023-09-19T10:39:31;3.20;;;1.60;;
75340;SDS011;64931;47.562;18.920;2023-09-19T10:41:57;4.90;;;2.20;;
75340;SDS011;64931;47.562;18.920;2023-09-19T10:44:30;4.40;;;2.20;;
75340;SDS011;64931;47.562;18.920;2023-09-19T10:46:57;5.10;;;2.50;;
75340;SDS011;64931;47.562;18.920;2023-09-19T10:49:22;3.80;;;2.00;;
75340;SDS011;64931;47.562;18.920;2023-09-19T10:51:50;4.50;;;1.90;;
75340;SDS011;64931;47.562;18.920;2023-09-19T10:54:20;6.10;;;2.40;;
75340;SDS011;64931;47.562;18.920;2023-09-19T10:56:48;4.90;;;1.70;;
75340;SDS011;64931;47.562;18.920;2023-09-19T10:59:20;3.70;;;1.30;;
75340;SDS011;64931;47.562;18.920;2023-09-19T11:01:47;3.30;;;1.60;;
75340;SDS011;64931;47.562;18.920;2023-09-19T11:04:23;4.50;;;1.60;;
75340;SDS011;64931;47.562;18.920;2023-09-19T11:09:49;3.00;;;1.20;;
75340;SDS011;64931;47.562;18.920;2023-09-19T11:15:02;2.40;;;1.10;;
75340;SDS011;64931;47.562;18.920;2023-09-19T11:17:39;3.10;;;1.30;;
75340;SDS011;64931;47.562;18.920;2023-09-19T11:30:42;3.20;;;1.20;;
75340;SDS011;64931;47.562;18.920;2023-09-19T11:43:54;2.60;;;1.20;;
75340;SDS011;64931;47.562;18.920;2023-09-19T11:49:17;3.50;;;1.30;;
75340;SDS011;64931;47.562;18.920;2023-09-19T11:52:04;2.90;;;1.20;;
75340;SDS011;64931;47.562;18.920;2023-09-19T11:54:32;3.00;;;1.20;;
75340;SDS011;64931;47.562;18.920;2023-09-19T11:56:58;3.00;;;1.20;;
75340;SDS011;64931;47.562;18.920;2023-09-19T11:59:25;3.50;;;1.30;;
75340;SDS011;64931;47.562;18.920;2023-09-19T12:01:58;2.80;;;1.50;;
75340;SDS011;64931;47.562;18.920;2023-09-19T12:04:33;3.00;;;1.60;;
75340;SDS011;64931;47.562;18.920;2023-09-19T12:07:13;3.40;;;1.80;;
75340;SDS011;64931;47.562;18.920;2023-09-19T12:09:44;4.90;;;1.70;;
75340;SDS011;64931;47.562;18.920;2023-09-19T12:12:24;4.60;;;1.90;;
75340;SDS011;64931;47.562;18.920;2023-09-19T12:14:52;3.40;;;1.90;;
75340;SDS011;64931;47.562;18.920;2023-09-19T12:17:19;4.30;;;1.90;;
75340;SDS011;64931;47.562;18.920;2023-09-19T12:19:55;4.00;;;1.90;;
75340;SDS011;64931;47.562;18.920;2023-09-19T12:22:21;4.40;;;1.80;;
75340;SDS011;64931;47.562;18.920;2023-09-19T12:24:47;4.30;;;2.10;;
75340;SDS011;64931;47.562;18.920;2023-09-19T12:27:13;4.00;;;1.70;;
75340;SDS011;64931;47.562;18.920;2023-09-19T12:32:08;4.30;;;1.70;;
75340;SDS011;64931;47.562;18.920;2023-09-19T12:34:34;2.80;;;1.30;;
75340;SDS011;64931;47.562;18.920;2023-09-19T12:37:13;3.80;;;1.70;;
75340;SDS011;64931;47.562;18.920;2023-09-19T12:40:03;3.70;;;1.60;;
75340;SDS011;64931;47.562;18.920;2023-09-19T12:42:42;3.40;;;1.80;;
75340;SDS011;64931;47.562;18.920;2023-09-19T12:45:10;4.60;;;1.70;;
75340;SDS011;64931;47.562;18.920;2023-09-19T12:47:36;7.30;;;1.60;;
75340;SDS011;64931;47.562;18.920;2023-09-19T12:52:51;3.30;;;1.70;;
75340;SDS011;64931;47.562;18.920;2023-09-19T12:55:27;4.90;;;1.60;;
75340;SDS011;64931;47.562;18.920;2023-09-19T13:00:43;3.40;;;1.50;;
75340;SDS011;64931;47.562;18.920;2023-09-19T13:03:17;5.10;;;1.90;;
75340;SDS011;64931;47.562;18.920;2023-09-19T13:08:30;5.20;;;2.00;;
75340;SDS011;64931;47.562;18.920;2023-09-19T13:11:03;3.60;;;1.70;;
75340;SDS011;64931;47.562;18.920;2023-09-19T13:13:38;4.40;;;1.60;;
75340;SDS011;64931;47.562;18.920;2023-09-19T13:16:05;8.50;;;1.90;;
75340;SDS011;64931;47.562;18.920;2023-09-19T13:18:43;3.50;;;2.00;;
75340;SDS011;64931;47.562;18.920;2023-09-19T13:21:12;5.00;;;1.70;;
75340;SDS011;64931;47.562;18.920;2023-09-19T13:27:05;4.60;;;1.80;;
75340;SDS011;64931;47.562;18.920;2023-09-19T13:29:31;5.60;;;1.90;;
75340;SDS011;64931;47.562;18.920;2023-09-19T13:31:57;3.60;;;1.80;;
75340;SDS011;64931;47.562;18.920;2023-09-19T13:34:23;5.10;;;1.90;;
75340;SDS011;64931;47.562;18.920;2023-09-19T13:36:49;4.00;;;1.70;;
75340;SDS011;64931;47.562;18.920;2023-09-19T13:39:15;4.50;;;1.70;;
75340;SDS011;64931;47.562;18.920;2023-09-19T13:41:41;8.70;;;1.90;;
75340;SDS011;64931;47.562;18.920;2023-09-19T13:46:36;4.30;;;1.90;;
75340;SDS011;64931;47.562;18.920;2023-09-19T13:49:02;3.00;;;1.50;;
75340;SDS011;64931;47.562;18.920;2023-09-19T13:51:31;3.50;;;1.90;;
75340;SDS011;64931;47.562;18.920;2023-09-19T13:53:57;5.40;;;1.90;;
75340;SDS011;64931;47.562;18.920;2023-09-19T13:56:22;5.30;;;1.90;;
75340;SDS011;64931;47.562;18.920;2023-09-19T13:58:49;4.70;;;2.00;;
75340;SDS011;64931;47.562;18.920;2023-09-19T14:01:14;3.70;;;1.80;;
75340;SDS011;64931;47.562;18.920;2023-09-19T14:03:40;4.10;;;1.70;;
75340;SDS011;64931;47.562;18.920;2023-09-19T14:06:11;5.70;;;1.90;;
75340;SDS011;64931;47.562;18.920;2023-09-19T14:08:37;4.40;;;1.80;;
75340;SDS011;64931;47.562;18.920;2023-09-19T14:11:09;4.30;;;1.90;;
75340;SDS011;64931;47.562;18.920;2023-09-19T14:13:35;6.10;;;1.90;;
75340;SDS011;64931;47.562;18.920;2023-09-19T14:16:04;3.80;;;1.70;;
75340;SDS011;64931;47.562;18.920;2023-09-19T14:18:30;5.80;;;2.10;;
75340;SDS011;64931;47.562;18.920;2023-09-19T14:20:56;5.60;;;1.80;;
75340;SDS011;64931;47.562;18.920;2023-09-19T14:23:22;4.60;;;2.30;;
75340;SDS011;64931;47.562;18.920;2023-09-19T14:25:48;3.70;;;2.00;;
75340;SDS011;64931;47.562;18.920;2023-09-19T14:28:15;5.20;;;1.80;;
75340;SDS011;64931;47.562;18.920;2023-09-19T14:30:40;4.20;;;1.90;;
75340;SDS011;64931;47.562;18.920;2023-09-19T14:33:06;3.70;;;1.70;;
75340;SDS011;64931;47.562;18.920;2023-09-19T14:35:32;3.90;;;1.70;;
75340;SDS011;64931;47.562;18.920;2023-09-19T14:37:58;3.90;;;1.70;;
75340;SDS011;64931;47.562;18.920;2023-09-19T14:40:23;4.90;;;1.80;;
75340;SDS011;64931;47.562;18.920;2023-09-19T14:42:48;4.90;;;1.70;;
75340;SDS011;64931;47.562;18.920;2023-09-19T14:45:14;4.30;;;1.50;;
75340;SDS011;64931;47.562;18.920;2023-09-19T14:47:43;5.00;;;1.40;;
75340;SDS011;64931;47.562;18.920;2023-09-19T14:52:37;3.10;;;1.50;;
75340;SDS011;64931;47.562;18.920;2023-09-19T14:55:05;3.30;;;1.40;;
75340;SDS011;64931;47.562;18.920;2023-09-19T14:57:33;4.20;;;1.50;;
75340;SDS011;64931;47.562;18.920;2023-09-19T14:59:59;4.00;;;1.60;;
75340;SDS011;64931;47.562;18.920;2023-09-19T15:02:25;3.40;;;1.40;;
75340;SDS011;64931;47.562;18.920;2023-09-19T15:04:51;4.50;;;1.50;;
75340;SDS011;64931;47.562;18.920;2023-09-19T15:07:17;3.10;;;1.60;;
75340;SDS011;64931;47.562;18.920;2023-09-19T15:09:43;3.60;;;1.50;;
75340;SDS011;64931;47.562;18.920;2023-09-19T15:12:09;5.30;;;1.50;;
75340;SDS011;64931;47.562;18.920;2023-09-19T15:14:39;4.10;;;1.50;;
75340;SDS011;64931;47.562;18.920;2023-09-19T15:17:08;5.20;;;1.80;;
75340;SDS011;64931;47.562;18.920;2023-09-19T15:19:33;3.10;;;1.40;;
75340;SDS011;64931;47.562;18.920;2023-09-19T15:22:00;3.00;;;1.60;;
75340;SDS011;64931;47.562;18.920;2023-09-19T15:24:26;6.20;;;1.50;;
75340;SDS011;64931;47.562;18.920;2023-09-19T15:26:52;3.40;;;1.60;;
75340;SDS011;64931;47.562;18.920;2023-09-19T15:29:20;5.50;;;1.70;;
75340;SDS011;64931;47.562;18.920;2023-09-19T15:31:46;6.60;;;1.50;;
75340;SDS011;64931;47.562;18.920;2023-09-19T15:34:11;2.40;;;1.40;;
75340;SDS011;64931;47.562;18.920;2023-09-19T15:36:39;3.40;;;1.40;;
75340;SDS011;64931;47.562;18.920;2023-09-19T15:39:05;3.30;;;1.70;;
75340;SDS011;64931;47.562;18.920;2023-09-19T15:43:59;5.20;;;2.60;;
75340;SDS011;64931;47.562;18.920;2023-09-19T15:46:26;3.60;;;1.80;;
75340;SDS011;64931;47.562;18.920;2023-09-19T15:48:53;3.80;;;1.60;;
75340;SDS011;64931;47.562;18.920;2023-09-19T15:51:19;2.90;;;1.50;;
75340;SDS011;64931;47.562;18.920;2023-09-19T15:53:48;3.20;;;1.40;;
75340;SDS011;64931;47.562;18.920;2023-09-19T15:56:15;3.10;;;1.60;;
75340;SDS011;64931;47.562;18.920;2023-09-19T15:58:46;3.20;;;1.60;;
75340;SDS011;64931;47.562;18.920;2023-09-19T16:01:12;5.90;;;2.00;;
75340;SDS011;64931;47.562;18.920;2023-09-19T16:03:40;4.50;;;1.70;;
75340;SDS011;64931;47.562;18.920;2023-09-19T16:06:12;5.20;;;1.70;;
75340;SDS011;64931;47.562;18.920;2023-09-19T16:08:40;3.70;;;1.50;;